This is the latest recevied weather packets stored in our database for station/object SR6WXJG. If no packets are shown the sender has not sent any weather packets the latest 10 day(s).
| Time | Temp. | Humidity | Pressure | Rain* | Wind** | Luminosity | Snow |
|---|---|---|---|---|---|---|---|
| 1777925121 | 17.78° C | 56% | 1012 hPa | 0 mm | - | - | - |
| 1777924221 | 17.78° C | 68% | 1012 hPa | 0 mm | - | - | - |
| 1777923320 | 17.78° C | 67% | 1012 hPa | 0 mm | - | - | - |
| 1777922420 | 18.89° C | 54% | 1012 hPa | 0 mm | - | - | - |
| 1777921520 | 19.44° C | 62% | 1012 hPa | 0 mm | - | - | - |
| 1777920619 | 19.44° C | 62% | 1012 hPa | 0 mm | - | - | - |
| 1777919719 | 19.44° C | 62% | 1012 hPa | 0 mm | - | - | - |
| 1777918818 | 20.56° C | 49% | 1012 hPa | 0 mm | - | - | - |
| 1777917918 | 21.11° C | 48% | 1012 hPa | 0 mm | - | - | - |
| 1777917018 | 21.11° C | 55% | 1011 hPa | 0 mm | - | - | - |
| 1777916117 | 21.67° C | 55% | 1011 hPa | 0 mm | - | - | - |
| 1777915217 | 22.78° C | 44% | 1012 hPa | 0 mm | - | - | - |
| 1777914317 | 22.78° C | 44% | 1012 hPa | 0 mm | - | - | - |
| 1777913416 | 23.33° C | 52% | 1011 hPa | 0 mm | - | - | - |
| 1777912516 | 23.33° C | 51% | 1011 hPa | 0 mm | - | - | - |
| 1777911616 | 23.89° C | 42% | 1012 hPa | 0 mm | - | - | - |
| 1777910715 | 24.44° C | 47% | 1011 hPa | 0 mm | - | - | - |
| 1777909815 | 24.44° C | 47% | 1011 hPa | 0 mm | - | - | - |
| 1777908915 | 24.44° C | 47% | 1012 hPa | 0 mm | - | - | - |
| 1777908014 | 24.44° C | 39% | 1012 hPa | 0 mm | - | - | - |
| 1777907114 | 24.44° C | 39% | 1012 hPa | 0 mm | - | - | - |
| 1777906214 | 24.44° C | 45% | 1012 hPa | 0 mm | - | - | - |
| 1777905313 | 24.44° C | 44% | 1012 hPa | 0 mm | - | - | - |
| 1777904413 | 25° C | 39% | 1013 hPa | 0 mm | - | - | - |
| 1777903513 | 24.44° C | 39% | 1013 hPa | 0 mm | - | - | - |
* Rain latest hour (hover to see other rain measurements)
** Current wind speed in m/s (hover to see current wind gust speed)